createdAt,value
2018-01-03T01:38:27.119Z,991.88
2018-01-03T01:38:27.691Z,991.86
2018-01-03T01:38:28.291Z,991.85
2018-01-03T01:38:28.894Z,991.88
2018-01-03T01:38:29.492Z,991.89
2018-01-03T01:38:30.090Z,991.90
2018-01-03T01:38:30.691Z,991.92
2018-01-03T01:38:31.292Z,991.91
2018-01-03T01:39:24.784Z,991.81
2018-01-03T01:39:25.348Z,991.74
2018-01-03T01:39:25.943Z,991.77
2018-01-03T01:39:26.545Z,991.75
2018-01-03T01:39:27.141Z,991.80
2018-01-03T01:39:27.743Z,991.80
2018-01-03T01:39:28.343Z,991.77
2018-01-03T01:39:28.943Z,991.80
2018-01-03T01:40:23.424Z,991.77
2018-01-03T01:40:24.022Z,991.79
2018-01-03T01:40:24.618Z,991.75
2018-01-03T01:40:25.221Z,991.75
2018-01-03T01:40:25.819Z,991.73
2018-01-03T01:40:26.419Z,991.78
2018-01-03T01:40:27.018Z,991.74
2018-01-03T01:40:27.617Z,991.76
2018-01-03T01:41:21.076Z,991.69
2018-01-03T01:41:21.672Z,991.71
2018-01-03T01:41:22.274Z,991.72
2018-01-03T01:41:22.873Z,991.67
2018-01-03T01:41:23.472Z,991.65
2018-01-03T01:41:24.071Z,991.66
2018-01-03T01:41:24.671Z,991.68
2018-01-03T01:41:25.273Z,991.69
2018-01-03T01:42:18.728Z,991.60
2018-01-03T01:42:19.328Z,991.64
2018-01-03T01:42:19.925Z,991.65
2018-01-03T01:42:20.524Z,991.61
2018-01-03T01:42:21.123Z,991.61
2018-01-03T01:42:21.723Z,991.64
2018-01-03T01:42:22.327Z,991.64
2018-01-03T01:42:22.923Z,991.61
2018-01-03T01:43:17.403Z,991.61
2018-01-03T01:43:17.999Z,991.61
2018-01-03T01:43:18.598Z,991.59
2018-01-03T01:43:19.201Z,991.61
2018-01-03T01:43:19.799Z,991.60
2018-01-03T01:43:20.402Z,991.66
2018-01-03T01:43:20.998Z,991.62
2018-01-03T01:43:21.604Z,991.62
2018-01-03T01:44:16.080Z,991.55
2018-01-03T01:44:16.676Z,991.58
2018-01-03T01:44:17.275Z,991.60
2018-01-03T01:44:17.875Z,991.61
2018-01-03T01:44:18.475Z,991.62
2018-01-03T01:44:19.075Z,991.59
2018-01-03T01:44:19.695Z,991.59
2018-01-03T01:44:20.275Z,991.58
2018-01-03T01:45:13.764Z,991.57
2018-01-03T01:45:14.329Z,991.59
2018-01-03T01:45:14.928Z,991.54
2018-01-03T01:45:15.528Z,991.60
2018-01-03T01:45:16.132Z,991.55
2018-01-03T01:45:16.728Z,991.55
2018-01-03T01:45:17.327Z,991.55
2018-01-03T01:45:17.928Z,991.54
2018-01-03T01:46:12.408Z,991.50
2018-01-03T01:46:13.007Z,991.52
2018-01-03T01:46:13.605Z,991.48
2018-01-03T01:46:14.205Z,991.48
2018-01-03T01:46:14.805Z,991.48
2018-01-03T01:46:15.405Z,991.50
2018-01-03T01:46:16.007Z,991.46
2018-01-03T01:46:16.604Z,991.45
2018-01-03T01:47:11.085Z,991.44
2018-01-03T01:47:11.679Z,991.49
2018-01-03T01:47:12.280Z,991.48
2018-01-03T01:47:12.881Z,991.48
2018-01-03T01:47:13.478Z,991.47
2018-01-03T01:47:14.076Z,991.47
2018-01-03T01:47:14.679Z,991.48
2018-01-03T01:47:15.276Z,991.46
2018-01-03T01:48:08.736Z,991.40
2018-01-03T01:48:09.332Z,991.42
2018-01-03T01:48:09.931Z,991.42
2018-01-03T01:48:10.532Z,991.38
2018-01-03T01:48:11.131Z,991.34
2018-01-03T01:48:11.735Z,991.38
2018-01-03T01:48:12.332Z,991.39
2018-01-03T01:48:12.932Z,991.34
2018-01-03T01:49:07.413Z,991.29
2018-01-03T01:49:08.009Z,991.25
2018-01-03T01:49:08.608Z,991.30
2018-01-03T01:49:09.207Z,991.29
2018-01-03T01:49:09.806Z,991.25
2018-01-03T01:49:10.405Z,991.27
2018-01-03T01:49:11.007Z,991.26
2018-01-03T01:49:11.605Z,991.29
2018-01-03T01:50:05.064Z,991.22
2018-01-03T01:50:05.663Z,991.19
2018-01-03T01:50:06.261Z,991.18
2018-01-03T01:50:06.859Z,991.17
2018-01-03T01:50:07.463Z,991.17
2018-01-03T01:50:08.060Z,991.18
2018-01-03T01:50:08.660Z,991.16
2018-01-03T01:50:09.259Z,991.17
2018-01-03T01:51:02.744Z,991.22
2018-01-03T01:51:03.314Z,991.20
2018-01-03T01:51:03.912Z,991.19
2018-01-03T01:51:04.512Z,991.17
2018-01-03T01:51:05.114Z,991.14
2018-01-03T01:51:05.712Z,991.17
2018-01-03T01:51:06.311Z,991.16
2018-01-03T01:51:06.912Z,991.16
2018-01-03T01:52:00.469Z,991.14
2018-01-03T01:52:01.067Z,991.13
2018-01-03T01:52:01.667Z,991.12
2018-01-03T01:52:02.266Z,991.15
2018-01-03T01:52:02.866Z,991.12
2018-01-03T01:52:03.466Z,991.14
2018-01-03T01:52:04.064Z,991.13
2018-01-03T01:52:04.665Z,991.13
2018-01-03T01:52:58.120Z,991.14
2018-01-03T01:52:58.718Z,991.15
2018-01-03T01:52:59.318Z,991.14
2018-01-03T01:52:59.922Z,991.14
2018-01-03T01:53:00.517Z,991.16
2018-01-03T01:53:01.117Z,991.15
2018-01-03T01:53:01.717Z,991.15
2018-01-03T01:53:02.316Z,991.18
2018-01-03T01:53:56.797Z,991.11
2018-01-03T01:53:57.393Z,991.13
2018-01-03T01:53:57.992Z,991.09
2018-01-03T01:53:58.593Z,991.10
2018-01-03T01:53:59.218Z,991.10
2018-01-03T01:53:59.794Z,991.11
2018-01-03T01:54:00.392Z,991.11
2018-01-03T01:54:00.993Z,991.12
2018-01-03T01:54:55.474Z,991.03
2018-01-03T01:54:56.066Z,991.03
2018-01-03T01:54:56.667Z,991.03
2018-01-03T01:54:57.276Z,991.07
2018-01-03T01:54:57.871Z,991.02
2018-01-03T01:54:58.466Z,991.02
2018-01-03T01:54:59.068Z,991.04
2018-01-03T01:54:59.665Z,991.06
2018-01-03T01:55:54.182Z,991.00
2018-01-03T01:55:54.744Z,990.97
2018-01-03T01:55:55.343Z,991.01
2018-01-03T01:55:55.943Z,990.97
2018-01-03T01:55:56.543Z,990.96
2018-01-03T01:55:57.148Z,991.00
2018-01-03T01:55:57.742Z,990.99
2018-01-03T01:55:58.343Z,990.99
2018-01-03T01:56:51.805Z,990.91
2018-01-03T01:56:52.398Z,990.90
2018-01-03T01:56:52.995Z,990.89
2018-01-03T01:56:53.596Z,990.90
2018-01-03T01:56:54.195Z,990.89
2018-01-03T01:56:54.795Z,990.90
2018-01-03T01:56:55.396Z,990.85
2018-01-03T01:56:55.996Z,990.86
2018-01-03T01:57:50.480Z,990.83
2018-01-03T01:57:51.071Z,990.86
2018-01-03T01:57:51.671Z,990.83
2018-01-03T01:57:52.271Z,990.84
2018-01-03T01:57:52.871Z,990.84
2018-01-03T01:57:53.472Z,990.85
2018-01-03T01:57:54.071Z,990.83
2018-01-03T01:57:54.671Z,990.86
2018-01-03T01:58:48.128Z,990.74
2018-01-03T01:58:48.725Z,990.73
2018-01-03T01:58:49.322Z,990.76
2018-01-03T01:58:49.923Z,990.76
2018-01-03T01:58:50.523Z,990.75
2018-01-03T01:58:51.124Z,990.76
2018-01-03T01:58:51.723Z,990.77
2018-01-03T01:58:52.344Z,990.82
2018-01-03T01:59:46.807Z,990.69
2018-01-03T01:59:47.399Z,990.68
2018-01-03T01:59:48.003Z,990.65
2018-01-03T01:59:48.598Z,990.69
2018-01-03T01:59:49.197Z,990.67
2018-01-03T01:59:49.799Z,990.67
2018-01-03T01:59:50.398Z,990.71
2018-01-03T01:59:50.997Z,990.68
2018-01-03T02:00:45.479Z,990.64
2018-01-03T02:00:46.074Z,990.65
2018-01-03T02:00:46.673Z,990.64
2018-01-03T02:00:47.276Z,990.63
2018-01-03T02:00:47.873Z,990.65
2018-01-03T02:00:48.474Z,990.66
2018-01-03T02:00:49.073Z,990.61
2018-01-03T02:00:49.673Z,990.62
2018-01-03T02:01:43.265Z,990.59
2018-01-03T02:01:43.829Z,990.57
2018-01-03T02:01:44.429Z,990.59
2018-01-03T02:01:45.029Z,990.62
2018-01-03T02:01:45.628Z,990.58
2018-01-03T02:01:46.227Z,990.62
2018-01-03T02:01:46.828Z,990.61
2018-01-03T02:01:47.427Z,990.61
2018-01-03T02:02:40.886Z,990.55
2018-01-03T02:02:41.481Z,990.52
2018-01-03T02:02:42.083Z,990.51
2018-01-03T02:02:42.680Z,990.51
2018-01-03T02:02:43.280Z,990.51
2018-01-03T02:02:43.882Z,990.50
2018-01-03T02:02:44.481Z,990.51
2018-01-03T02:02:45.080Z,990.48
2018-01-03T02:03:38.538Z,990.45
2018-01-03T02:03:39.134Z,990.43
2018-01-03T02:03:39.732Z,990.41
2018-01-03T02:03:40.332Z,990.42
2018-01-03T02:03:40.931Z,990.46
2018-01-03T02:03:41.532Z,990.41
2018-01-03T02:03:42.132Z,990.43
2018-01-03T02:03:42.732Z,990.44
2018-01-03T02:04:36.188Z,990.39
2018-01-03T02:04:36.784Z,990.37
2018-01-03T02:04:37.389Z,990.34
2018-01-03T02:04:37.984Z,990.35
2018-01-03T02:04:38.583Z,990.36
2018-01-03T02:04:39.184Z,990.39
2018-01-03T02:04:39.783Z,990.33
2018-01-03T02:04:40.384Z,990.39
2018-01-03T02:05:34.863Z,990.29
2018-01-03T02:05:35.474Z,990.30
2018-01-03T02:05:36.060Z,990.28
2018-01-03T02:05:36.659Z,990.29
2018-01-03T02:05:37.261Z,990.29
2018-01-03T02:05:37.859Z,990.31
2018-01-03T02:05:38.460Z,990.28
2018-01-03T02:05:39.057Z,990.26
2018-01-03T02:06:32.516Z,990.16
2018-01-03T02:06:33.112Z,990.19
2018-01-03T02:06:33.712Z,990.17
2018-01-03T02:06:34.311Z,990.14
2018-01-03T02:06:34.911Z,990.13
2018-01-03T02:06:35.512Z,990.10
2018-01-03T02:06:36.110Z,990.12
2018-01-03T02:06:36.710Z,990.16
2018-01-03T02:07:30.225Z,990.06
2018-01-03T02:07:30.766Z,990.09
2018-01-03T02:07:31.364Z,990.05
2018-01-03T02:07:31.964Z,990.08
2018-01-03T02:07:32.564Z,990.05
2018-01-03T02:07:33.163Z,990.04
2018-01-03T02:07:33.763Z,990.01
2018-01-03T02:07:34.367Z,990.06
2018-01-03T02:08:27.818Z,990.06
2018-01-03T02:08:28.415Z,990.08
2018-01-03T02:08:29.015Z,990.11
2018-01-03T02:08:29.615Z,990.06
2018-01-03T02:08:30.215Z,990.05
2018-01-03T02:08:30.824Z,990.06
2018-01-03T02:08:31.414Z,990.05
2018-01-03T02:08:32.015Z,990.02
2018-01-03T02:09:25.469Z,990.00
2018-01-03T02:09:26.067Z,990.01
2018-01-03T02:09:26.681Z,990.03
2018-01-03T02:09:27.267Z,990.01
2018-01-03T02:09:27.868Z,990.01
2018-01-03T02:09:28.467Z,990.03
2018-01-03T02:09:29.066Z,990.03
2018-01-03T02:09:29.670Z,990.04
2018-01-03T02:10:23.124Z,989.93
2018-01-03T02:10:23.719Z,989.93
2018-01-03T02:10:24.319Z,989.94
2018-01-03T02:10:24.918Z,989.92
2018-01-03T02:10:25.524Z,989.94
2018-01-03T02:10:26.120Z,989.90
2018-01-03T02:10:26.718Z,989.94
2018-01-03T02:10:27.335Z,989.97
2018-01-03T02:11:21.798Z,989.90
2018-01-03T02:11:22.394Z,989.91
2018-01-03T02:11:23.000Z,989.92
2018-01-03T02:11:23.592Z,989.90
2018-01-03T02:11:24.192Z,989.90
2018-01-03T02:11:24.791Z,989.91
2018-01-03T02:11:25.392Z,989.91
2018-01-03T02:11:25.994Z,989.93
2018-01-03T02:12:19.450Z,989.77
2018-01-03T02:12:20.046Z,989.83
2018-01-03T02:12:20.659Z,989.88
2018-01-03T02:12:21.245Z,989.90
2018-01-03T02:12:21.851Z,989.84
2018-01-03T02:12:22.445Z,989.85
2018-01-03T02:12:23.046Z,989.82
2018-01-03T02:12:23.645Z,989.81
2018-01-03T02:13:17.128Z,989.74
2018-01-03T02:13:17.698Z,989.74
2018-01-03T02:13:18.322Z,989.73
2018-01-03T02:13:18.897Z,989.72
2018-01-03T02:13:19.500Z,989.69
2018-01-03T02:13:20.099Z,989.72
2018-01-03T02:13:20.696Z,989.69
2018-01-03T02:13:21.295Z,989.71
2018-01-03T02:14:14.754Z,989.66
2018-01-03T02:14:15.351Z,989.69
2018-01-03T02:14:15.948Z,989.66
2018-01-03T02:14:16.549Z,989.68
2018-01-03T02:14:17.151Z,989.67
2018-01-03T02:14:17.749Z,989.66
2018-01-03T02:14:18.349Z,989.67
2018-01-03T02:14:18.949Z,989.67
2018-01-03T02:15:12.403Z,989.63
2018-01-03T02:15:13.001Z,989.64
2018-01-03T02:15:13.599Z,989.65
2018-01-03T02:15:14.201Z,989.64
2018-01-03T02:15:14.802Z,989.64
2018-01-03T02:15:15.399Z,989.62
2018-01-03T02:15:15.999Z,989.62
2018-01-03T02:15:16.601Z,989.62
2018-01-03T02:16:10.644Z,989.50
2018-01-03T02:16:11.164Z,989.51
2018-01-03T02:16:11.764Z,989.54
2018-01-03T02:16:12.364Z,989.53
2018-01-03T02:16:12.963Z,989.53
2018-01-03T02:16:13.564Z,989.52
2018-01-03T02:16:14.163Z,989.50
2018-01-03T02:17:07.708Z,989.49
2018-01-03T02:17:08.308Z,989.49
2018-01-03T02:17:08.904Z,989.50
2018-01-03T02:17:09.504Z,989.49
2018-01-03T02:17:10.103Z,989.44
2018-01-03T02:17:10.705Z,989.43
2018-01-03T02:17:11.307Z,989.45
2018-01-03T02:17:11.904Z,989.46
2018-01-03T02:18:32.954Z,989.38
2018-01-03T02:18:33.501Z,989.41
2018-01-03T02:18:34.104Z,989.43
2018-01-03T02:18:34.702Z,989.36
2018-01-03T02:18:35.301Z,989.36
2018-01-03T02:18:35.903Z,989.33
2018-01-03T02:18:36.501Z,989.30
2018-01-03T02:18:37.101Z,989.33
2018-01-03T02:18:37.701Z,989.37
2018-01-03T02:18:38.299Z,989.37
2018-01-03T02:18:38.900Z,989.34
2018-01-03T02:18:39.500Z,989.39
2018-01-03T02:19:33.526Z,989.30
2018-01-03T02:19:34.122Z,989.27
2018-01-03T02:19:34.721Z,989.32
2018-01-03T02:19:35.324Z,989.34
2018-01-03T02:19:35.922Z,989.33
2018-01-03T02:19:36.523Z,989.29
2018-01-03T02:19:37.121Z,989.33
2018-01-03T02:20:30.667Z,989.23
2018-01-03T02:20:31.264Z,989.23
2018-01-03T02:20:31.865Z,989.22
2018-01-03T02:20:32.463Z,989.22
2018-01-03T02:20:33.064Z,989.21
2018-01-03T02:20:33.663Z,989.25
2018-01-03T02:20:34.263Z,989.29
2018-01-03T02:20:34.865Z,989.30
2018-01-03T02:21:28.318Z,989.20
2018-01-03T02:21:28.916Z,989.22
2018-01-03T02:21:29.516Z,989.24
2018-01-03T02:21:30.115Z,989.25
2018-01-03T02:21:30.715Z,989.22
2018-01-03T02:21:31.315Z,989.25
2018-01-03T02:21:31.914Z,989.23
2018-01-03T02:21:32.516Z,989.17
2018-01-03T02:22:26.059Z,989.09
2018-01-03T02:22:26.566Z,989.06
2018-01-03T02:22:27.166Z,989.08
2018-01-03T02:22:27.768Z,989.08
2018-01-03T02:22:28.366Z,989.08
2018-01-03T02:22:28.966Z,989.07
2018-01-03T02:22:29.565Z,989.08
2018-01-03T02:22:30.166Z,989.07
2018-01-03T02:23:23.621Z,989.05
2018-01-03T02:23:24.217Z,989.05
2018-01-03T02:23:24.817Z,989.04
2018-01-03T02:23:25.419Z,989.03
2018-01-03T02:23:26.017Z,989.02
2018-01-03T02:23:26.616Z,989.00
2018-01-03T02:23:27.216Z,988.98
2018-01-03T02:23:27.817Z,989.00
2018-01-03T02:24:21.303Z,988.97
2018-01-03T02:24:21.868Z,988.96
2018-01-03T02:24:22.469Z,988.95
2018-01-03T02:24:23.069Z,988.98
2018-01-03T02:24:23.668Z,988.99
2018-01-03T02:24:24.270Z,988.96
2018-01-03T02:24:24.868Z,988.99
2018-01-03T02:24:25.470Z,988.98
2018-01-03T02:25:18.924Z,988.93
2018-01-03T02:25:19.521Z,988.91
2018-01-03T02:25:20.126Z,988.94
2018-01-03T02:25:20.720Z,988.94
2018-01-03T02:25:21.321Z,988.92
2018-01-03T02:25:21.920Z,988.92
2018-01-03T02:25:22.521Z,988.89
2018-01-03T02:25:23.121Z,988.87
2018-01-03T02:26:17.087Z,988.80
2018-01-03T02:26:17.684Z,988.81
2018-01-03T02:26:18.287Z,988.82
2018-01-03T02:26:18.885Z,988.82
2018-01-03T02:26:19.483Z,988.81
2018-01-03T02:26:20.083Z,988.80
2018-01-03T02:26:20.683Z,988.80
2018-01-03T02:27:14.227Z,988.73
2018-01-03T02:27:14.823Z,988.66
2018-01-03T02:27:15.423Z,988.70
2018-01-03T02:27:16.023Z,988.72
2018-01-03T02:27:16.623Z,988.69
2018-01-03T02:27:17.224Z,988.70
2018-01-03T02:27:17.826Z,988.68
2018-01-03T02:27:18.423Z,988.68
2018-01-03T02:28:11.902Z,988.67
2018-01-03T02:28:12.475Z,988.63
2018-01-03T02:28:13.074Z,988.66
2018-01-03T02:28:13.674Z,988.69
2018-01-03T02:28:14.274Z,988.67
2018-01-03T02:28:14.874Z,988.63
2018-01-03T02:28:15.474Z,988.65
2018-01-03T02:28:16.074Z,988.62
2018-01-03T02:29:09.532Z,988.50
2018-01-03T02:29:10.128Z,988.53
2018-01-03T02:29:10.727Z,988.53
2018-01-03T02:29:11.332Z,988.47
2018-01-03T02:29:11.927Z,988.51
2018-01-03T02:29:12.527Z,988.52
2018-01-03T02:29:13.127Z,988.50
2018-01-03T02:29:13.726Z,988.52
2018-01-03T02:30:07.218Z,988.51
2018-01-03T02:30:07.780Z,988.49
2018-01-03T02:30:08.379Z,988.49
2018-01-03T02:30:08.983Z,988.50
2018-01-03T02:30:09.579Z,988.51
2018-01-03T02:30:10.177Z,988.53
2018-01-03T02:30:10.777Z,988.54
2018-01-03T02:30:11.378Z,988.51
2018-01-03T02:31:04.834Z,988.44
2018-01-03T02:31:05.431Z,988.47
2018-01-03T02:31:06.030Z,988.42
2018-01-03T02:31:06.632Z,988.42
2018-01-03T02:31:07.237Z,988.41
2018-01-03T02:31:07.839Z,988.40
2018-01-03T02:31:08.431Z,988.39
2018-01-03T02:31:09.031Z,988.39
2018-01-03T02:32:02.487Z,988.48
2018-01-03T02:32:03.089Z,988.47
2018-01-03T02:32:03.684Z,988.45
2018-01-03T02:32:04.284Z,988.45
2018-01-03T02:32:04.882Z,988.49
2018-01-03T02:32:05.483Z,988.46
2018-01-03T02:32:06.083Z,988.42
2018-01-03T02:32:06.683Z,988.41
2018-01-03T02:33:00.142Z,988.43
2018-01-03T02:33:00.737Z,988.43
2018-01-03T02:33:01.335Z,988.43
2018-01-03T02:33:01.934Z,988.43
2018-01-03T02:33:02.533Z,988.37
2018-01-03T02:33:03.133Z,988.42
2018-01-03T02:33:03.734Z,988.40
2018-01-03T02:33:04.344Z,988.40
2018-01-03T02:52:05.521Z,987.29
2018-01-03T02:52:06.087Z,987.32
2018-01-03T02:52:06.683Z,987.31
2018-01-03T02:52:07.282Z,987.30
2018-01-03T02:52:07.882Z,987.25
2018-01-03T02:52:08.481Z,987.31
2018-01-03T02:52:09.081Z,987.32
2018-01-03T02:52:09.681Z,987.31
2018-01-03T02:53:03.144Z,987.19
2018-01-03T02:53:03.737Z,987.19
2018-01-03T02:53:04.363Z,987.23
2018-01-03T02:53:04.934Z,987.24
2018-01-03T02:53:05.536Z,987.23
2018-01-03T02:53:06.140Z,987.25
2018-01-03T02:53:06.733Z,987.24
2018-01-03T02:53:07.335Z,987.22
2018-01-03T02:54:01.302Z,987.20
2018-01-03T02:54:01.907Z,987.23
2018-01-03T02:54:02.499Z,987.20
2018-01-03T02:54:03.100Z,987.21
2018-01-03T02:54:03.697Z,987.18
2018-01-03T02:54:04.298Z,987.23
2018-01-03T02:54:04.899Z,987.22
2018-01-03T02:54:58.342Z,987.20
2018-01-03T02:54:58.936Z,987.18
2018-01-03T02:54:59.537Z,987.21
2018-01-03T02:55:00.136Z,987.18
2018-01-03T02:55:00.743Z,987.19
2018-01-03T02:55:01.339Z,987.17
2018-01-03T02:55:01.937Z,987.20
2018-01-03T02:55:02.537Z,987.18
2018-01-03T02:55:55.990Z,987.11
2018-01-03T02:55:56.589Z,987.11
2018-01-03T02:55:57.188Z,987.11
2018-01-03T02:55:57.789Z,987.11
2018-01-03T02:55:58.387Z,987.15
2018-01-03T02:55:58.988Z,987.10
2018-01-03T02:55:59.587Z,987.09
2018-01-03T02:56:00.187Z,987.11
2018-01-03T02:56:53.645Z,987.02
2018-01-03T02:56:54.240Z,987.03
2018-01-03T02:56:54.840Z,987.04
2018-01-03T02:56:55.439Z,987.02
2018-01-03T02:56:56.042Z,987.04
2018-01-03T02:56:56.639Z,987.06
2018-01-03T02:56:57.241Z,987.06
2018-01-03T02:56:57.848Z,987.07
2018-01-03T02:57:51.320Z,986.95
2018-01-03T02:57:51.892Z,987.00
2018-01-03T02:57:52.492Z,986.98
2018-01-03T02:57:53.108Z,986.95
2018-01-03T02:57:53.690Z,986.96
2018-01-03T02:57:54.298Z,987.00
2018-01-03T02:57:54.895Z,986.98
2018-01-03T02:57:55.492Z,986.96
2018-01-03T02:58:48.947Z,986.94
2018-01-03T02:58:49.544Z,986.94
2018-01-03T02:58:50.143Z,986.95
2018-01-03T02:58:50.743Z,986.93
2018-01-03T02:58:51.343Z,986.92
2018-01-03T02:58:51.946Z,986.93
2018-01-03T02:58:52.543Z,986.92
2018-01-03T02:58:53.143Z,986.90
2018-01-03T02:59:46.629Z,986.81
2018-01-03T02:59:47.195Z,986.86
2018-01-03T02:59:47.795Z,986.86
2018-01-03T02:59:48.406Z,986.82
2018-01-03T02:59:48.998Z,986.84
2018-01-03T02:59:49.596Z,986.86
2018-01-03T02:59:50.195Z,986.85
2018-01-03T02:59:50.796Z,986.82
2018-01-03T03:00:44.252Z,986.75
2018-01-03T03:00:44.848Z,986.73
2018-01-03T03:00:45.448Z,986.71
2018-01-03T03:00:46.050Z,986.71
2018-01-03T03:00:46.651Z,986.73
2018-01-03T03:00:47.248Z,986.74
2018-01-03T03:00:47.847Z,986.74
2018-01-03T03:00:48.451Z,986.70
2018-01-03T03:01:42.926Z,986.61
2018-01-03T03:01:43.521Z,986.63
2018-01-03T03:01:44.123Z,986.61
2018-01-03T03:01:44.724Z,986.62
2018-01-03T03:01:45.329Z,986.59
2018-01-03T03:01:45.922Z,986.63
2018-01-03T03:01:46.522Z,986.64
2018-01-03T03:01:47.121Z,986.65
2018-01-03T03:02:40.612Z,986.53
2018-01-03T03:02:41.178Z,986.55
2018-01-03T03:02:41.777Z,986.53
2018-01-03T03:02:42.381Z,986.51
2018-01-03T03:02:42.978Z,986.51
2018-01-03T03:02:43.575Z,986.55
2018-01-03T03:02:44.174Z,986.52
2018-01-03T03:02:44.774Z,986.54
2018-01-03T03:03:38.232Z,986.44
2018-01-03T03:03:38.828Z,986.51
2018-01-03T03:03:39.433Z,986.46
2018-01-03T03:03:40.028Z,986.46
2018-01-03T03:03:40.629Z,986.44
2018-01-03T03:03:41.227Z,986.44
2018-01-03T03:03:41.826Z,986.43
2018-01-03T03:03:42.430Z,986.45
2018-01-03T03:04:35.974Z,986.33
2018-01-03T03:04:36.479Z,986.35
2018-01-03T03:04:37.079Z,986.35
2018-01-03T03:04:37.678Z,986.37
2018-01-03T03:04:38.281Z,986.37
2018-01-03T03:04:38.879Z,986.35
2018-01-03T03:04:39.479Z,986.32
2018-01-03T03:04:40.078Z,986.38
2018-01-03T03:05:34.558Z,986.28
2018-01-03T03:05:35.154Z,986.30
2018-01-03T03:05:35.753Z,986.34
2018-01-03T03:05:36.372Z,986.31
2018-01-03T03:05:36.956Z,986.30
2018-01-03T03:05:37.554Z,986.28
2018-01-03T03:05:38.153Z,986.27
2018-01-03T03:05:38.752Z,986.31
2018-01-03T03:06:32.215Z,986.22
2018-01-03T03:06:32.807Z,986.18
2018-01-03T03:06:33.409Z,986.23
2018-01-03T03:06:34.007Z,986.21
2018-01-03T03:06:34.607Z,986.21
2018-01-03T03:06:35.207Z,986.21
2018-01-03T03:06:35.806Z,986.22
2018-01-03T03:06:36.405Z,986.22
2018-01-03T03:07:30.884Z,986.20
2018-01-03T03:07:31.481Z,986.19
2018-01-03T03:07:32.084Z,986.17
2018-01-03T03:07:32.681Z,986.19
2018-01-03T03:07:33.281Z,986.20
2018-01-03T03:07:33.881Z,986.18
2018-01-03T03:07:34.487Z,986.17
2018-01-03T03:07:35.082Z,986.19
2018-01-03T03:08:29.885Z,986.17
2018-01-03T03:08:30.391Z,986.15
2018-01-03T03:08:30.990Z,986.16
2018-01-03T03:08:31.588Z,986.15
2018-01-03T03:08:32.194Z,986.15
2018-01-03T03:08:32.787Z,986.15
2018-01-03T03:08:33.386Z,986.14
2018-01-03T03:08:33.985Z,986.14
2018-01-03T03:09:27.541Z,986.05
2018-01-03T03:09:28.116Z,986.03
2018-01-03T03:09:28.719Z,986.01
2018-01-03T03:09:29.317Z,986.02
2018-01-03T03:09:29.919Z,985.99
2018-01-03T03:09:30.517Z,986.01
2018-01-03T03:09:31.119Z,985.97
2018-01-03T03:09:31.717Z,985.98
2018-01-03T03:10:25.174Z,985.91
2018-01-03T03:10:25.770Z,985.92
2018-01-03T03:10:26.370Z,985.92
2018-01-03T03:10:26.974Z,985.91
2018-01-03T03:10:27.580Z,985.94
2018-01-03T03:10:28.169Z,985.95
2018-01-03T03:10:28.769Z,985.98
2018-01-03T03:10:29.368Z,985.96
2018-01-03T03:11:22.829Z,985.82
2018-01-03T03:11:23.434Z,985.85
2018-01-03T03:11:24.021Z,985.83
2018-01-03T03:11:24.620Z,985.83
2018-01-03T03:11:25.220Z,985.86
2018-01-03T03:11:25.819Z,985.82
2018-01-03T03:11:26.419Z,985.84
2018-01-03T03:11:27.035Z,985.82
2018-01-03T03:12:20.479Z,985.77
2018-01-03T03:12:21.073Z,985.74
2018-01-03T03:12:21.672Z,985.80
2018-01-03T03:12:22.273Z,985.76
2018-01-03T03:12:22.872Z,985.76
2018-01-03T03:12:23.476Z,985.74
2018-01-03T03:12:24.071Z,985.73
2018-01-03T03:12:24.671Z,985.78
2018-01-03T03:13:18.131Z,985.71
2018-01-03T03:13:18.725Z,985.69
2018-01-03T03:13:19.324Z,985.70
2018-01-03T03:13:19.925Z,985.68
2018-01-03T03:13:20.535Z,985.71
2018-01-03T03:13:21.123Z,985.70
2018-01-03T03:13:21.724Z,985.70
2018-01-03T03:13:22.324Z,985.71
2018-01-03T03:14:15.810Z,985.63
2018-01-03T03:14:16.375Z,985.64
2018-01-03T03:14:16.975Z,985.62
2018-01-03T03:14:17.574Z,985.56
2018-01-03T03:14:18.174Z,985.56
2018-01-03T03:14:18.775Z,985.56
2018-01-03T03:14:19.375Z,985.47
2018-01-03T03:14:19.973Z,985.48
2018-01-03T03:15:13.432Z,985.43
2018-01-03T03:15:14.028Z,985.41
2018-01-03T03:15:14.627Z,985.44
2018-01-03T03:15:15.226Z,985.43
2018-01-03T03:15:15.831Z,985.42
2018-01-03T03:15:16.426Z,985.44
2018-01-03T03:15:17.029Z,985.46
2018-01-03T03:15:17.626Z,985.42
2018-01-03T03:16:11.083Z,985.35
2018-01-03T03:16:11.678Z,985.39
2018-01-03T03:16:12.278Z,985.42
2018-01-03T03:16:12.877Z,985.39
2018-01-03T03:16:13.480Z,985.41
2018-01-03T03:16:14.077Z,985.44
2018-01-03T03:16:14.678Z,985.42
2018-01-03T03:16:15.278Z,985.41
2018-01-03T03:17:08.739Z,985.38
2018-01-03T03:17:09.332Z,985.36
2018-01-03T03:17:09.929Z,985.35
2018-01-03T03:17:10.529Z,985.38
2018-01-03T03:17:11.129Z,985.35
2018-01-03T03:17:11.729Z,985.34
2018-01-03T03:17:12.335Z,985.36
2018-01-03T03:17:12.928Z,985.36
2018-01-03T03:18:06.389Z,985.27
2018-01-03T03:18:06.981Z,985.25
2018-01-03T03:18:07.581Z,985.26
2018-01-03T03:18:08.180Z,985.24
2018-01-03T03:18:08.782Z,985.20
2018-01-03T03:18:09.381Z,985.21
2018-01-03T03:18:09.981Z,985.24
2018-01-03T03:18:10.588Z,985.21
2018-01-03T03:19:04.039Z,985.21
2018-01-03T03:19:04.635Z,985.17
2018-01-03T03:19:05.233Z,985.20
2018-01-03T03:19:05.833Z,985.20
2018-01-03T03:19:06.434Z,985.19
2018-01-03T03:19:07.033Z,985.17
2018-01-03T03:19:07.648Z,985.18
2018-01-03T03:19:08.233Z,985.16
2018-01-03T03:20:01.715Z,984.91
2018-01-03T03:20:02.285Z,984.93
2018-01-03T03:20:02.885Z,984.86
2018-01-03T03:20:03.485Z,984.89
2018-01-03T03:20:04.084Z,984.89
2018-01-03T03:20:04.685Z,984.92
2018-01-03T03:20:05.284Z,984.92
2018-01-03T03:20:05.886Z,984.92
2018-01-03T03:20:59.340Z,984.87
2018-01-03T03:20:59.936Z,984.86
2018-01-03T03:21:00.536Z,984.84
2018-01-03T03:21:01.137Z,984.83
2018-01-03T03:21:01.737Z,984.84
2018-01-03T03:21:02.335Z,984.83
2018-01-03T03:21:02.936Z,984.81
2018-01-03T03:21:03.535Z,984.80
2018-01-03T03:21:56.990Z,984.79
2018-01-03T03:21:57.590Z,984.75
2018-01-03T03:21:58.188Z,984.73
2018-01-03T03:21:58.788Z,984.70
2018-01-03T03:21:59.388Z,984.73
2018-01-03T03:21:59.990Z,984.71
2018-01-03T03:22:00.587Z,984.74
2018-01-03T03:22:01.229Z,984.69
2018-01-03T03:22:54.644Z,984.66
2018-01-03T03:22:55.240Z,984.61
2018-01-03T03:22:55.841Z,984.62
2018-01-03T03:22:56.441Z,984.59
2018-01-03T03:22:57.042Z,984.58
2018-01-03T03:22:57.645Z,984.57
2018-01-03T03:22:58.244Z,984.57
2018-01-03T03:22:58.839Z,984.55
2018-01-03T03:23:52.301Z,984.59
2018-01-03T03:23:52.892Z,984.59
2018-01-03T03:23:53.492Z,984.64
2018-01-03T03:23:54.093Z,984.61
2018-01-03T03:23:54.692Z,984.65
2018-01-03T03:23:55.291Z,984.63
2018-01-03T03:23:55.892Z,984.61
2018-01-03T03:23:56.492Z,984.58
2018-01-03T03:24:49.973Z,984.58
2018-01-03T03:24:50.542Z,984.55
2018-01-03T03:24:51.144Z,984.57
2018-01-03T03:24:51.744Z,984.57
2018-01-03T03:24:52.343Z,984.57
2018-01-03T03:24:52.943Z,984.55
2018-01-03T03:24:53.542Z,984.57
2018-01-03T03:24:54.143Z,984.58
2018-01-03T03:25:47.599Z,984.57
2018-01-03T03:25:48.194Z,984.57
2018-01-03T03:25:48.795Z,984.51
2018-01-03T03:25:49.395Z,984.53
2018-01-03T03:25:49.995Z,984.55
2018-01-03T03:25:50.595Z,984.56
2018-01-03T03:25:51.195Z,984.52
2018-01-03T03:25:51.794Z,984.52
2018-01-03T03:26:45.251Z,984.46
2018-01-03T03:26:45.847Z,984.43
2018-01-03T03:26:46.446Z,984.43
2018-01-03T03:26:47.047Z,984.43
2018-01-03T03:26:47.646Z,984.41